createdAt,value
2018-04-08T00:48:10.507Z,94682.80
2018-04-08T00:50:43.782Z,94682.22
2018-04-08T00:53:17.821Z,94685.03
2018-04-08T00:55:51.098Z,94673.48
2018-04-08T00:58:25.118Z,94672.06
2018-04-08T02:32:07.065Z,94623.19
2018-04-08T02:34:40.336Z,94616.36
2018-04-08T02:37:14.357Z,94615.94
2018-04-08T02:39:47.619Z,94613.70
2018-04-08T02:42:21.646Z,94612.09
2018-04-08T02:44:55.680Z,94610.75
2018-04-08T03:46:03.474Z,94608.45
2018-04-08T03:48:36.721Z,94608.34
2018-04-08T03:51:09.991Z,94607.77
2018-04-08T03:53:43.245Z,94608.29
2018-04-08T03:56:16.514Z,94604.11
2018-04-08T03:58:49.767Z,94610.31
2018-04-08T05:03:12.949Z,94633.31
2018-04-08T05:05:46.203Z,94638.41
2018-04-08T05:08:19.473Z,94639.33
2018-04-08T05:10:52.745Z,94630.45
2018-04-08T05:13:26.007Z,94638.88
2018-04-08T05:15:59.247Z,94637.75
2018-04-08T05:18:33.286Z,94638.06
2018-04-08T05:21:06.537Z,94634.89
2018-04-08T05:23:39.808Z,94637.34
2018-04-08T05:26:13.040Z,94642.28
2018-04-08T05:28:47.080Z,94640.86
2018-04-08T05:31:20.321Z,94644.33
2018-04-08T05:33:53.593Z,94639.33
2018-04-08T05:36:26.844Z,94643.16
2018-04-08T05:39:00.873Z,94636.73
2018-04-08T05:41:34.125Z,94641.84
2018-04-08T05:44:07.393Z,94639.52
2018-04-08T05:46:40.640Z,94639.22
2018-04-08T05:49:13.905Z,94635.66
2018-04-08T05:51:47.202Z,94636.83
2018-04-08T05:54:20.453Z,94630.51
2018-04-08T05:56:53.920Z,94635.14
2018-04-08T05:59:27.172Z,94631.17
2018-04-08T06:02:00.429Z,94636.38
2018-04-08T06:04:33.681Z,94639.58
2018-04-08T06:07:06.958Z,94638.35
2018-04-08T06:09:40.204Z,94638.86
2018-04-08T06:12:13.509Z,94632.33
2018-04-08T06:14:46.754Z,94634.69
2018-04-08T06:17:20.029Z,94632.47
2018-04-08T06:19:53.372Z,94637.58
2018-04-08T06:22:27.424Z,94632.58
2018-04-08T06:25:00.673Z,94640.98
2018-04-08T06:27:34.888Z,94632.41
2018-04-08T06:30:08.896Z,94636.70
2018-04-08T06:32:42.933Z,94637.45
2018-04-08T06:35:16.177Z,94636.94
2018-04-08T06:37:49.448Z,94634.00
2018-04-08T06:40:22.696Z,94629.41
2018-04-08T06:42:56.733Z,94636.27
2018-04-08T06:45:29.989Z,94630.45
2018-04-08T06:48:04.025Z,94629.69
2018-04-08T06:50:37.272Z,94627.95
2018-04-08T06:53:10.541Z,94622.25
2018-04-08T06:55:43.822Z,94627.65
2018-04-08T06:58:17.095Z,94627.36
2018-04-08T07:00:50.356Z,94623.09
2018-04-08T07:03:23.626Z,94625.83
2018-04-08T07:05:56.879Z,94625.95
2018-04-08T07:08:30.153Z,94629.20
2018-04-08T07:11:04.161Z,94625.72
2018-04-08T07:13:38.201Z,94631.56
2018-04-08T07:16:11.457Z,94637.16
2018-04-08T07:18:44.723Z,94639.42
2018-04-08T07:21:17.974Z,94639.75
2018-04-08T07:23:51.242Z,94642.59
2018-04-08T07:26:24.492Z,94638.89
2018-04-08T07:28:57.792Z,94643.61
2018-04-08T07:31:31.101Z,94646.04
2018-04-08T07:34:04.399Z,94638.47
2018-04-08T07:36:37.791Z,94640.21
2018-04-08T07:39:11.074Z,94637.92
2018-04-08T07:41:44.399Z,94628.31
2018-04-08T07:44:17.737Z,94619.09
2018-04-08T07:46:51.019Z,94623.05
2018-04-08T07:49:24.311Z,94624.47
2018-04-08T07:51:57.596Z,94620.66
2018-04-08T07:54:31.649Z,94620.75
2018-04-08T07:57:05.110Z,94619.48
2018-04-08T07:59:38.362Z,94617.34
2018-04-08T08:02:11.632Z,94618.14
2018-04-08T08:04:44.913Z,94612.66
2018-04-08T08:07:18.186Z,94613.45
2018-04-08T08:09:51.440Z,94605.44
2018-04-08T08:12:24.709Z,94604.34
2018-04-08T08:14:57.981Z,94603.39
2018-04-08T08:17:31.245Z,94599.66
2018-04-08T08:20:05.266Z,94604.22
2018-04-08T08:22:39.316Z,94607.12
2018-04-08T08:25:12.565Z,94605.05
2018-04-08T08:27:46.609Z,94592.60
2018-04-08T08:30:19.878Z,94593.98
2018-04-08T08:32:53.155Z,94596.05
2018-04-08T08:35:26.406Z,94594.63
2018-04-08T08:37:59.685Z,94599.17
2018-04-08T08:40:32.933Z,94596.41
2018-04-08T08:43:06.217Z,94594.40
2018-04-08T08:45:39.473Z,94588.38
2018-04-08T08:48:12.757Z,94585.31
2018-04-08T08:50:46.007Z,94588.96
2018-04-08T08:53:19.272Z,94589.42
2018-04-08T08:55:52.535Z,94586.02
2018-04-08T08:58:25.817Z,94592.70
2018-04-08T09:00:59.090Z,94582.95
2018-04-08T09:03:32.524Z,94580.91
2018-04-08T09:06:05.919Z,94581.84
2018-04-08T09:08:39.337Z,94579.22
2018-04-08T09:11:12.602Z,94572.58
2018-04-08T09:13:45.873Z,94571.48
2018-04-08T09:16:19.897Z,94571.00
2018-04-08T09:19:13.953Z,94572.22
2018-04-08T09:21:57.861Z,94572.78
2018-04-08T09:27:30.754Z,94576.91
2018-04-08T09:30:04.040Z,94574.38
2018-04-08T09:32:37.296Z,94571.33
2018-04-08T09:35:10.569Z,94566.30
2018-04-08T09:37:43.841Z,94561.50
2018-04-08T09:40:17.130Z,94559.80
2018-04-08T09:42:50.389Z,94560.80
2018-04-08T09:45:24.436Z,94561.16
2018-04-08T09:47:57.774Z,94563.03
2018-04-08T09:50:31.057Z,94555.47
2018-04-08T09:53:04.313Z,94550.34
2018-04-08T09:55:37.595Z,94554.81
2018-04-08T09:58:13.656Z,94557.19
2018-04-08T10:03:48.801Z,94549.27
2018-04-08T10:06:22.847Z,94545.19
2018-04-08T10:08:56.100Z,94542.23
2018-04-08T10:11:30.138Z,94545.97
2018-04-08T10:14:03.400Z,94540.92
2018-04-08T10:16:37.464Z,94543.09
2018-04-08T10:19:10.722Z,94536.09
2018-04-08T10:21:44.010Z,94533.17
2018-04-08T10:24:18.070Z,94532.27
2018-04-08T10:26:51.332Z,94522.76
2018-04-08T10:29:24.825Z,94524.09
2018-04-08T10:31:58.089Z,94521.27
2018-04-08T10:34:31.385Z,94522.50
2018-04-08T10:37:04.634Z,94522.49
2018-04-08T10:39:37.925Z,94520.69
2018-04-08T10:42:11.178Z,94517.64
2018-04-08T10:44:45.267Z,94514.50
2018-04-08T10:47:18.484Z,94515.16
2018-04-08T10:49:51.801Z,94510.55
2018-04-08T10:52:25.058Z,94508.59
2018-04-08T10:54:58.338Z,94512.20
2018-04-08T10:57:31.600Z,94516.89
2018-04-08T11:00:04.877Z,94512.55
2018-04-08T11:02:38.150Z,94504.50
2018-04-08T11:05:12.379Z,94498.81
2018-04-08T11:07:45.652Z,94499.06
2018-04-08T11:10:19.687Z,94500.52
2018-04-08T11:12:52.942Z,94492.98
2018-04-08T11:15:26.226Z,94489.41
2018-04-08T11:17:59.514Z,94489.63
2018-04-08T11:20:32.789Z,94490.37
2018-04-08T11:23:06.045Z,94478.52
2018-04-08T11:25:40.096Z,94478.20
2018-04-08T11:28:13.342Z,94473.41
2018-04-08T11:30:47.391Z,94474.98
2018-04-08T11:33:20.650Z,94471.90
2018-04-08T11:35:53.926Z,94473.22
2018-04-08T11:38:27.189Z,94472.95
2018-04-08T11:41:00.469Z,94467.28
2018-04-08T11:43:33.729Z,94466.97
2018-04-08T11:46:07.018Z,94463.70
2018-04-08T11:48:40.264Z,94465.15
2018-04-08T11:51:13.555Z,94465.02
2018-04-08T11:53:46.813Z,94460.66
2018-04-08T11:56:20.869Z,94459.56
2018-04-08T11:58:54.126Z,94457.08
2018-04-08T12:01:27.491Z,94454.98
2018-04-08T12:04:00.820Z,94448.59
2018-04-08T12:06:34.862Z,94449.18
2018-04-08T12:09:08.223Z,94437.01
2018-04-08T12:11:41.525Z,94436.52
2018-04-08T12:14:14.888Z,94430.55
2018-04-08T12:16:48.162Z,94437.48
2018-04-08T12:19:21.473Z,94433.45
2018-04-08T12:21:54.732Z,94433.62
2018-04-08T12:24:28.021Z,94434.17
2018-04-08T12:27:02.648Z,94432.41
2018-04-08T12:29:35.949Z,94431.23
2018-04-08T12:32:09.209Z,94428.38
2018-04-08T12:34:42.478Z,94430.55
2018-04-08T12:37:16.508Z,94425.64
2018-04-08T12:39:49.769Z,94425.73
2018-04-08T12:42:23.031Z,94423.41
2018-04-08T12:44:56.330Z,94412.31
2018-04-08T12:47:29.596Z,94411.74
2018-04-08T12:50:02.880Z,94414.08
2018-04-08T12:52:36.138Z,94408.12
2018-04-08T12:55:09.424Z,94404.42
2018-04-08T12:57:42.675Z,94396.98
2018-04-08T13:00:15.960Z,94397.16
2018-04-08T13:02:49.213Z,94387.18
2018-04-08T13:05:22.490Z,94382.79
2018-04-08T13:07:55.766Z,94386.16
2018-04-08T13:10:29.066Z,94375.75
2018-04-08T13:13:02.310Z,94378.42
2018-04-08T13:15:36.353Z,94380.63
2018-04-08T13:18:09.608Z,94368.84
2018-04-08T13:20:42.881Z,94366.88
2018-04-08T13:23:16.147Z,94366.25
2018-04-08T13:25:49.414Z,94355.00
2018-04-08T13:28:22.676Z,94356.51
2018-04-08T13:30:56.717Z,94354.75
2018-04-08T13:33:30.006Z,94351.36
2018-04-08T13:36:03.269Z,94354.18
2018-04-08T13:38:36.533Z,94350.45
2018-04-08T13:41:09.812Z,94342.62
2018-04-08T13:43:43.065Z,94341.83
2018-04-08T13:46:16.346Z,94331.22
2018-04-08T13:48:49.591Z,94322.77
2018-04-08T13:51:22.868Z,94333.42
2018-04-08T13:53:56.125Z,94329.56
2018-04-08T13:56:30.177Z,94326.83
2018-04-08T13:59:03.431Z,94325.97
2018-04-08T14:01:36.823Z,94318.91
2018-04-08T14:04:10.084Z,94321.63
2018-04-08T14:06:43.358Z,94318.70
2018-04-08T14:09:16.634Z,94321.36
2018-04-08T14:11:49.895Z,94320.59
2018-04-08T14:14:23.177Z,94315.64
2018-04-08T14:16:56.433Z,94308.43
2018-04-08T14:19:29.689Z,94311.61
2018-04-08T14:22:02.961Z,94315.86
2018-04-08T14:24:36.309Z,94310.48
2018-04-08T14:27:09.502Z,94315.97
2018-04-08T14:29:42.764Z,94308.34
2018-04-08T14:32:16.811Z,94309.86
2018-04-08T14:34:50.083Z,94305.19
2018-04-08T14:37:23.345Z,94296.56
2018-04-08T14:39:56.605Z,94296.80
2018-04-08T14:42:29.869Z,94286.03
2018-04-08T14:45:03.921Z,94290.50
2018-04-08T14:47:37.213Z,94297.70
2018-04-08T14:50:11.225Z,94285.80
2018-04-08T14:52:44.481Z,94282.14
2018-04-08T14:55:17.777Z,94278.66
2018-04-08T14:57:51.790Z,94274.55
2018-04-08T15:00:25.831Z,94268.90
2018-04-08T15:02:59.085Z,94268.36
2018-04-08T15:05:32.362Z,94270.47
2018-04-08T15:08:06.388Z,94269.59
2018-04-08T15:10:40.446Z,94277.17
2018-04-08T15:13:13.691Z,94277.56
2018-04-08T15:15:47.742Z,94271.08
2018-04-08T15:18:20.992Z,94280.95
2018-04-08T15:20:54.265Z,94268.72
2018-04-08T15:23:27.530Z,94268.00
2018-04-08T15:26:00.806Z,94266.64
2018-04-08T15:28:34.064Z,94263.26
2018-04-08T15:31:07.344Z,94262.37
2018-04-08T15:33:40.605Z,94258.45
2018-04-08T15:36:13.884Z,94262.55
2018-04-08T15:38:47.136Z,94259.70
2018-04-08T15:41:20.408Z,94255.05
2018-04-08T15:43:53.660Z,94257.05
2018-04-08T15:46:27.015Z,94248.09
2018-04-08T15:49:00.290Z,94254.31
2018-04-08T15:51:33.558Z,94238.40
2018-04-08T15:54:06.855Z,94253.89
2018-04-08T15:56:40.853Z,94248.88
2018-04-08T15:59:14.118Z,94251.91
2018-04-08T16:01:47.377Z,94246.58
2018-04-08T16:04:20.657Z,94251.84
2018-04-08T16:06:53.916Z,94244.53
2018-04-08T16:09:27.186Z,94247.10
2018-04-08T16:12:00.443Z,94238.20
2018-04-08T16:14:33.713Z,94242.93
2018-04-08T16:17:06.977Z,94244.47
2018-04-08T16:19:41.014Z,94246.49
2018-04-08T16:22:14.296Z,94240.62
2018-04-08T16:24:48.326Z,94244.20
2018-04-08T16:27:21.585Z,94251.44
2018-04-08T16:29:55.616Z,94252.72
2018-04-08T16:32:28.872Z,94252.92
2018-04-08T16:35:02.151Z,94256.86
2018-04-08T16:37:35.418Z,94257.19
2018-04-08T16:40:08.695Z,94254.86
2018-04-08T16:42:41.945Z,94260.39
2018-04-08T16:45:15.237Z,94269.76
2018-04-08T16:47:48.494Z,94269.73
2018-04-08T16:50:21.778Z,94270.13
2018-04-08T16:52:55.037Z,94267.39
2018-04-08T16:55:28.311Z,94273.84
2018-04-08T16:58:01.570Z,94267.41
2018-04-08T17:00:34.846Z,94271.00
2018-04-08T17:03:08.853Z,94272.92
2018-04-08T17:05:42.148Z,94272.77
2018-04-08T17:08:15.390Z,94268.94
2018-04-08T17:10:48.666Z,94267.61
2018-04-08T17:13:21.916Z,94271.92
2018-04-08T17:15:55.966Z,94273.38
2018-04-08T17:18:29.218Z,94271.34
2018-04-08T17:21:02.498Z,94268.75
2018-04-08T17:23:35.751Z,94264.81
2018-04-08T17:26:09.025Z,94262.76
2018-04-08T17:28:42.286Z,94264.44
2018-04-08T17:31:15.588Z,94273.46
2018-04-08T17:33:49.616Z,94273.39
2018-04-08T17:36:22.901Z,94271.69
2018-04-08T17:38:56.922Z,94273.55
2018-04-08T17:41:30.968Z,94268.70
2018-04-08T17:44:04.221Z,94277.02
2018-04-08T17:46:38.258Z,94277.06
2018-04-08T17:49:11.514Z,94279.52
2018-04-08T17:51:45.574Z,94285.36
2018-04-08T17:54:18.864Z,94292.81
2018-04-08T17:56:52.151Z,94287.06
2018-04-08T17:59:25.441Z,94286.34
2018-04-08T18:01:59.445Z,94295.11
2018-04-08T18:04:32.710Z,94296.68
2018-04-08T18:07:06.002Z,94295.66
2018-04-08T18:09:39.260Z,94295.44
2018-04-08T18:12:12.538Z,94301.87
2018-04-08T18:14:45.793Z,94296.23
2018-04-08T18:17:19.836Z,94297.21
2018-04-08T18:19:53.097Z,94299.70
2018-04-08T18:22:27.137Z,94297.71
2018-04-08T18:25:00.394Z,94303.05
2018-04-08T18:27:33.672Z,94302.01
2018-04-08T18:30:06.920Z,94302.61
2018-04-08T18:32:40.212Z,94301.66
2018-04-08T18:35:13.477Z,94309.55
2018-04-08T18:37:47.521Z,94316.63
2018-04-08T18:40:20.777Z,94317.58
2018-04-08T18:42:55.049Z,94319.81
2018-04-08T18:45:28.304Z,94321.99
2018-04-08T18:48:01.579Z,94319.08
2018-04-08T18:50:35.597Z,94322.35
2018-04-08T18:53:08.870Z,94319.95
2018-04-08T18:55:42.914Z,94317.95
2018-04-08T18:58:16.208Z,94323.55
2018-04-08T19:00:49.461Z,94326.84
2018-04-08T19:03:22.733Z,94327.70
2018-04-08T19:05:55.997Z,94334.19
2018-04-08T19:08:29.269Z,94327.74
2018-04-08T19:11:02.533Z,94326.66
2018-04-08T19:13:35.809Z,94323.84
2018-04-08T19:16:09.064Z,94331.28
2018-04-08T19:18:42.348Z,94329.83
2018-04-08T19:21:16.369Z,94327.14
2018-04-08T19:23:49.645Z,94331.75
2018-04-08T19:26:23.688Z,94323.28
2018-04-08T19:28:56.946Z,94328.02
2018-04-08T19:31:31.097Z,94324.92
2018-04-08T19:34:04.358Z,94323.05
2018-04-08T19:36:38.402Z,94321.19
2018-04-08T19:39:11.648Z,94319.30
2018-04-08T19:41:44.937Z,94320.55
2018-04-08T19:44:18.190Z,94318.52
2018-04-08T19:46:51.491Z,94320.96
2018-04-08T19:49:24.769Z,94313.66
2018-04-08T19:51:58.050Z,94316.66
2018-04-08T19:54:31.330Z,94308.30
2018-04-08T19:57:05.372Z,94307.48
2018-04-08T19:59:38.641Z,94305.61
2018-04-08T20:02:11.910Z,94301.14
2018-04-08T20:04:45.185Z,94308.72
2018-04-08T20:07:18.466Z,94306.14
2018-04-08T20:09:51.717Z,94310.06
2018-04-08T20:12:25.010Z,94309.39
2018-04-08T20:14:59.030Z,94310.73
2018-04-08T20:17:32.331Z,94308.31
2018-04-08T20:20:05.586Z,94310.32
2018-04-08T20:22:38.866Z,94311.01
2018-04-08T20:25:12.126Z,94302.23
2018-04-08T20:27:45.399Z,94311.92
2018-04-08T20:30:19.375Z,94306.88
2018-04-08T20:32:52.666Z,94305.80
2018-04-08T20:35:25.905Z,94305.54
2018-04-08T20:37:59.181Z,94308.34
2018-04-08T20:40:32.437Z,94309.42
2018-04-08T20:43:05.714Z,94307.81
2018-04-08T20:45:38.979Z,94310.34
2018-04-08T20:48:12.257Z,94307.52
2018-04-08T20:50:46.283Z,94307.76
2018-04-08T20:53:19.562Z,94311.77
2018-04-08T20:55:53.579Z,94310.42
2018-04-08T20:58:26.861Z,94312.00
2018-04-08T21:01:00.141Z,94306.75
2018-04-08T21:03:33.420Z,94306.58
2018-04-08T21:06:06.674Z,94309.40
2018-04-08T21:08:39.957Z,94307.24
2018-04-08T21:11:13.233Z,94310.44
2018-04-08T21:13:47.270Z,94312.31
2018-04-08T21:16:20.550Z,94306.13
2018-04-08T21:18:53.807Z,94311.91
2018-04-08T21:21:27.089Z,94312.67
2018-04-08T21:24:00.341Z,94314.28
2018-04-08T21:26:33.614Z,94312.37
2018-04-08T21:29:07.632Z,94307.92
2018-04-08T21:31:40.919Z,94303.56
2018-04-08T21:34:14.951Z,94300.73
2018-04-08T21:36:48.204Z,94315.77
2018-04-08T21:39:21.483Z,94311.98
2018-04-08T21:41:54.734Z,94320.55
2018-04-08T21:44:28.022Z,94309.91
2018-04-08T21:47:01.283Z,94308.52
2018-04-08T21:49:34.557Z,94305.36
2018-04-08T21:52:07.828Z,94309.09
2018-04-08T21:54:41.113Z,94315.09
2018-04-08T21:57:14.378Z,94310.36
2018-04-08T21:59:48.417Z,94301.98
2018-04-08T22:02:21.689Z,94303.02
2018-04-08T22:04:54.942Z,94295.70
2018-04-08T22:07:28.249Z,94291.74
2018-04-08T22:10:01.492Z,94290.92
2018-04-08T22:12:34.765Z,94289.44
2018-04-08T22:15:08.012Z,94299.73
2018-04-08T22:17:41.292Z,94296.31
2018-04-08T22:20:14.541Z,94290.20
2018-04-08T22:22:47.818Z,94287.20
2018-04-08T22:25:21.078Z,94293.88
2018-04-08T22:27:54.358Z,94290.77
2018-04-08T22:30:29.440Z,94287.53
2018-04-08T22:33:02.713Z,94288.06
2018-04-08T22:35:35.977Z,94286.31
2018-04-08T22:38:09.244Z,94285.36
2018-04-08T22:40:43.266Z,94282.48
2018-04-08T22:43:16.554Z,94289.03
2018-04-08T22:45:49.816Z,94290.89
2018-04-08T22:48:23.084Z,94292.98
2018-04-08T22:50:56.353Z,94284.23
2018-04-08T22:53:29.627Z,94279.32
2018-04-08T22:56:03.652Z,94280.38
2018-04-08T22:58:36.932Z,94280.30
2018-04-08T23:01:10.189Z,94274.75
2018-04-08T23:03:43.469Z,94280.83
2018-04-08T23:06:16.751Z,94286.38
2018-04-08T23:08:50.056Z,94292.66
2018-04-08T23:11:23.273Z,94291.96
2018-04-08T23:13:56.562Z,94293.50
